Time;durP1;ratioP1;P1;durP2;ratioP2;P2;SDS_P1;SDS_P2;PMS_P1;PMS_P2;Temp;Humidity;BMP_temperature;BMP_pressure;BME280_temperature;BME280_humidity;BME280_pressure;Samples;Min_cycle;Max_cycle;Signal;HPM_P1;HPM_P2
2022/02/17 00:00:41;;;;;;;7.32;2.60;;;11.60;99.90;;;;;;5065978;28;20245;-75
2022/02/17 00:03:08;;;;;;;10.15;3.17;;;11.50;99.90;;;;;;5066846;28;20203;-76
2022/02/17 00:05:35;;;;;;;14.88;3.90;;;11.60;99.90;;;;;;5070018;28;20197;-72
2022/02/17 00:08:02;;;;;;;9.43;2.67;;;11.50;99.90;;;;;;5070628;28;20186;-73
2022/02/17 00:10:30;;;;;;;8.98;3.28;;;11.60;99.90;;;;;;5066601;28;20237;-76
2022/02/17 00:12:59;;;;;;;6.93;3.05;;;11.50;99.90;;;;;;5064101;28;20201;-74
2022/02/17 00:15:27;;;;;;;16.35;3.13;;;11.50;99.90;;;;;;5067242;28;20321;-72
2022/02/17 00:17:54;;;;;;;7.20;2.70;;;11.50;99.90;;;;;;5074710;28;20192;-72
2022/02/17 00:20:21;;;;;;;11.98;3.00;;;11.50;99.90;;;;;;5080555;28;20209;-73
2022/02/17 00:22:49;;;;;;;13.30;2.33;;;11.50;99.90;;;;;;5079746;28;20457;-73
2022/02/17 00:25:16;;;;;;;5.95;2.83;;;11.50;99.90;;;;;;5069751;28;20249;-75
2022/02/17 00:27:45;;;;;;;9.52;2.95;;;11.40;99.90;;;;;;5079292;28;20190;-71
2022/02/17 00:30:12;;;;;;;9.50;2.72;;;11.40;99.90;;;;;;5074815;28;20267;-71
2022/02/17 00:32:40;;;;;;;7.35;2.63;;;11.40;99.90;;;;;;5071529;28;20277;-74
2022/02/17 00:35:08;;;;;;;10.40;3.17;;;11.40;99.90;;;;;;5071676;28;20189;-75
2022/02/17 00:37:35;;;;;;;6.55;2.42;;;11.40;99.90;;;;;;5067780;28;20195;-75
2022/02/17 00:40:03;;;;;;;12.02;3.60;;;11.40;99.90;;;;;;5061434;28;20202;-72
2022/02/17 00:42:32;;;;;;;13.00;3.90;;;11.40;99.90;;;;;;5074621;28;20204;-73
2022/02/17 00:45:00;;;;;;;8.23;3.47;;;11.50;99.90;;;;;;5067830;28;20182;-73
2022/02/17 00:47:28;;;;;;;7.38;2.55;;;11.50;99.90;;;;;;5065405;28;20186;-71
2022/02/17 00:49:55;;;;;;;9.35;2.97;;;11.60;99.90;;;;;;5058623;28;20237;-73
2022/02/17 00:52:23;;;;;;;12.15;3.72;;;11.70;99.90;;;;;;5071382;28;20435;-76
2022/02/17 00:54:49;;;;;;;6.10;3.00;;;11.60;99.90;;;;;;5069161;28;20231;-72
2022/02/17 00:57:17;;;;;;;20.13;2.85;;;11.60;99.90;;;;;;5073713;28;20188;-75
2022/02/17 00:59:44;;;;;;;15.05;3.00;;;11.60;99.90;;;;;;5077904;28;20187;-74
2022/02/17 01:02:15;;;;;;;6.22;3.17;;;11.60;99.90;;;;;;5070605;28;20219;-68
2022/02/17 01:04:42;;;;;;;14.82;3.53;;;11.60;99.90;;;;;;5068418;28;20196;-74
2022/02/17 01:07:09;;;;;;;5.88;2.45;;;11.60;99.90;;;;;;5067222;28;20379;-74
2022/02/17 01:09:43;;;;;;;17.15;3.58;;;11.60;99.90;;;;;;5066319;28;20211;-72
2022/02/17 01:12:10;;;;;;;17.38;2.92;;;11.60;99.90;;;;;;5067518;28;20210;-71
2022/02/17 01:14:39;;;;;;;8.05;3.70;;;11.60;99.90;;;;;;5068122;28;20214;-74
2022/02/17 01:17:07;;;;;;;13.02;2.42;;;11.60;99.90;;;;;;5072240;28;20255;-75
2022/02/17 01:19:36;;;;;;;12.07;3.33;;;11.60;99.90;;;;;;5083645;28;20190;-74
2022/02/17 01:22:03;;;;;;;9.48;3.08;;;11.60;99.90;;;;;;5071313;28;20264;-71
2022/02/17 01:24:31;;;;;;;10.05;3.20;;;11.60;99.90;;;;;;5067013;28;20194;-73
2022/02/17 01:27:01;;;;;;;17.48;3.78;;;11.50;99.90;;;;;;5079203;28;20185;-73
2022/02/17 01:29:28;;;;;;;6.72;3.20;;;11.50;99.90;;;;;;5083233;28;20226;-72
2022/02/17 01:31:55;;;;;;;7.18;4.00;;;11.40;99.90;;;;;;5071166;28;20281;-74
2022/02/17 01:34:22;;;;;;;20.50;4.05;;;11.40;99.90;;;;;;5071007;28;20243;-71
2022/02/17 01:36:50;;;;;;;14.63;3.53;;;11.30;99.90;;;;;;5072280;28;20261;-73
2022/02/17 01:39:19;;;;;;;13.75;3.20;;;11.20;99.90;;;;;;5071963;28;20211;-72
2022/02/17 01:41:46;;;;;;;10.68;3.05;;;11.10;99.90;;;;;;5081471;28;20219;-73
2022/02/17 01:44:13;;;;;;;19.38;4.60;;;11.20;99.90;;;;;;5069685;28;20242;-73
2022/02/17 01:46:42;;;;;;;9.57;2.70;;;11.20;99.90;;;;;;5069271;28;20184;-72
2022/02/17 01:49:10;;;;;;;11.65;3.10;;;11.20;99.90;;;;;;5070162;28;20226;-72
2022/02/17 01:51:37;;;;;;;13.43;2.80;;;11.20;99.90;;;;;;5070230;28;20226;-71
2022/02/17 01:54:07;;;;;;;14.20;3.88;;;11.20;99.90;;;;;;5081193;28;20194;-75
2022/02/17 01:56:36;;;;;;;16.20;4.95;;;11.10;99.90;;;;;;5069286;28;20249;-73
2022/02/17 01:59:06;;;;;;;10.27;3.55;;;11.10;99.90;;;;;;5069739;28;20216;-74
2022/02/17 02:01:34;;;;;;;17.95;3.47;;;11.20;99.90;;;;;;5068199;28;20189;-75
2022/02/17 02:04:01;;;;;;;8.85;3.33;;;11.20;99.90;;;;;;5069066;28;20181;-75
2022/02/17 02:06:28;;;;;;;19.17;3.65;;;11.20;99.90;;;;;;5068880;28;20196;-73
2022/02/17 02:08:58;;;;;;;15.13;3.75;;;11.30;99.90;;;;;;5081228;28;20224;-74
2022/02/17 02:11:27;;;;;;;13.50;3.80;;;11.30;99.90;;;;;;5079357;28;20182;-74
2022/02/17 02:13:54;;;;;;;9.88;2.80;;;11.30;99.90;;;;;;5080919;28;20191;-75
2022/02/17 02:16:21;;;;;;;17.00;4.55;;;11.30;99.90;;;;;;5081962;28;20211;-74
2022/02/17 02:18:48;;;;;;;8.90;3.05;;;11.30;99.90;;;;;;5088176;28;20251;-73
2022/02/17 02:21:16;;;;;;;14.45;3.95;;;11.30;99.90;;;;;;5069791;28;20200;-75
2022/02/17 02:23:43;;;;;;;11.20;3.70;;;11.20;99.90;;;;;;5068176;28;20422;-74
2022/02/17 02:26:10;;;;;;;15.35;4.35;;;11.20;99.90;;;;;;5069178;28;20261;-73
2022/02/17 02:28:37;;;;;;;14.90;3.95;;;11.10;99.90;;;;;;5070556;28;20398;-76
2022/02/17 02:31:05;;;;;;;11.00;3.30;;;11.10;99.90;;;;;;5070992;28;20223;-75
2022/02/17 02:33:32;;;;;;;10.63;3.22;;;11.00;99.90;;;;;;5068157;28;20522;-71
2022/02/17 02:36:00;;;;;;;8.13;3.50;;;11.00;99.90;;;;;;5075655;28;20189;-71
2022/02/17 02:38:28;;;;;;;12.05;2.50;;;10.90;99.90;;;;;;5069107;28;20255;-73
2022/02/17 02:40:55;;;;;;;8.77;2.80;;;10.90;99.90;;;;;;5065617;28;20885;-75
2022/02/17 02:43:22;;;;;;;14.13;3.70;;;10.80;99.90;;;;;;5067993;28;20212;-76
2022/02/17 02:45:49;;;;;;;13.35;3.33;;;10.70;99.90;;;;;;5082816;28;20203;-74
2022/02/17 02:48:16;;;;;;;6.97;2.13;;;10.70;99.90;;;;;;5086071;28;20193;-73
2022/02/17 02:50:43;;;;;;;16.58;3.35;;;10.60;99.90;;;;;;5067772;28;20209;-73
2022/02/17 02:53:14;;;;;;;10.43;2.33;;;10.50;99.90;;;;;;5067262;28;20256;-72
2022/02/17 02:55:44;;;;;;;15.75;3.50;;;10.50;99.90;;;;;;5076314;28;20183;-71
2022/02/17 02:58:12;;;;;;;7.88;3.10;;;10.50;99.90;;;;;;5078294;28;20198;-74
2022/02/17 03:00:39;;;;;;;7.32;2.13;;;10.40;99.90;;;;;;5074629;28;20295;-74
2022/02/17 03:03:06;;;;;;;13.80;3.25;;;10.40;99.90;;;;;;5068702;28;20240;-71
2022/02/17 03:05:33;;;;;;;10.73;3.05;;;10.30;99.90;;;;;;5069603;28;20212;-76
2022/02/17 03:08:01;;;;;;;5.10;2.50;;;10.30;99.90;;;;;;5074390;28;20188;-72
2022/02/17 03:10:28;;;;;;;7.65;2.75;;;10.30;99.90;;;;;;5075202;28;20215;-72
2022/02/17 03:12:56;;;;;;;13.90;4.30;;;10.40;99.90;;;;;;5067786;28;20201;-75
2022/02/17 03:15:24;;;;;;;14.70;5.13;;;10.30;99.90;;;;;;5068698;28;20394;-75
2022/02/17 03:17:51;;;;;;;11.05;3.35;;;10.40;99.90;;;;;;5060561;28;20194;-72
2022/02/17 03:20:18;;;;;;;12.00;3.00;;;10.30;99.90;;;;;;5069123;28;20191;-72
2022/02/17 03:22:45;;;;;;;9.55;2.83;;;10.30;99.90;;;;;;5070893;28;20208;-72
2022/02/17 03:25:15;;;;;;;14.93;3.85;;;10.30;99.90;;;;;;5064734;28;20196;-72
2022/02/17 03:27:42;;;;;;;13.73;3.53;;;10.30;99.90;;;;;;5070844;28;20203;-74
2022/02/17 03:30:12;;;;;;;16.17;6.32;;;10.30;99.90;;;;;;5075909;28;20204;-75
2022/02/17 03:32:40;;;;;;;11.65;3.67;;;10.30;99.90;;;;;;5080167;28;20266;-71
2022/02/17 03:35:09;;;;;;;12.80;3.50;;;10.30;99.90;;;;;;5067520;28;20209;-74
2022/02/17 03:37:37;;;;;;;13.13;3.40;;;10.40;99.90;;;;;;5068002;28;20269;-75
2022/02/17 03:40:04;;;;;;;23.45;5.53;;;10.30;99.90;;;;;;5072023;28;20184;-72
2022/02/17 03:42:32;;;;;;;11.43;3.42;;;10.30;99.90;;;;;;5070171;28;20331;-72
2022/02/17 03:44:59;;;;;;;17.13;5.32;;;10.30;99.90;;;;;;5075444;28;20203;-73
2022/02/17 03:47:27;;;;;;;17.80;4.30;;;10.30;99.90;;;;;;5059324;28;20247;-73
2022/02/17 03:50:12;;;;;;;20.75;3.95;;;10.30;99.90;;;;;;5058593;28;20213;-71
2022/02/17 03:52:41;;;;;;;9.68;3.47;;;10.20;99.90;;;;;;5054655;28;20356;-72
2022/02/17 03:55:10;;;;;;;14.50;3.38;;;10.20;99.90;;;;;;5061040;28;20209;-73
2022/02/17 03:57:37;;;;;;;16.30;4.65;;;10.10;99.90;;;;;;5067498;28;20191;-72
2022/02/17 04:00:07;;;;;;;14.23;3.85;;;10.10;99.90;;;;;;5048121;28;20169;-72
2022/02/17 04:02:35;;;;;;;12.68;5.30;;;10.10;99.90;;;;;;5060592;28;20279;-71
2022/02/17 04:05:41;;;;;;;12.48;3.95;;;10.10;99.90;;;;;;5067801;28;20180;-74
2022/02/17 04:08:08;;;;;;;18.38;5.45;;;10.10;99.90;;;;;;5067464;28;20185;-75
2022/02/17 04:10:37;;;;;;;10.80;3.75;;;10.10;99.90;;;;;;5067210;28;20200;-75
2022/02/17 04:13:03;;;;;;;19.50;5.78;;;10.10;99.90;;;;;;5067628;28;20214;-73
2022/02/17 04:15:38;;;;;;;20.25;3.72;;;10.00;99.90;;;;;;5067529;28;20175;-73
2022/02/17 04:18:06;;;;;;;12.18;3.65;;;10.00;99.90;;;;;;5067541;28;20206;-73
2022/02/17 04:20:33;;;;;;;14.70;4.82;;;10.00;99.90;;;;;;5067378;28;20203;-73
2022/02/17 04:23:15;;;;;;;13.38;3.92;;;10.00;99.90;;;;;;5067423;28;20476;-72
2022/02/17 04:25:42;;;;;;;15.95;5.10;;;10.00;99.90;;;;;;5067548;28;20220;-76
2022/02/17 04:28:15;;;;;;;16.10;4.78;;;10.00;99.90;;;;;;5066954;28;20185;-73
2022/02/17 04:30:42;;;;;;;14.05;3.97;;;9.90;99.90;;;;;;5067743;28;20259;-72
2022/02/17 04:33:10;;;;;;;15.23;5.43;;;9.90;99.90;;;;;;5067084;28;20204;-74
2022/02/17 04:35:38;;;;;;;9.32;3.45;;;9.90;99.90;;;;;;5066914;28;20184;-72
2022/02/17 04:38:04;;;;;;;12.43;3.65;;;9.90;99.90;;;;;;5067515;28;20175;-73
2022/02/17 04:43:18;;;;;;;13.77;3.90;;;9.90;99.90;;;;;;5066773;28;20374;-75
2022/02/17 04:45:46;;;;;;;17.27;5.45;;;9.80;99.90;;;;;;5067163;28;20199;-73
2022/02/17 04:48:17;;;;;;;18.52;5.47;;;9.90;99.90;;;;;;5070971;28;20214;-73
2022/02/17 04:50:44;;;;;;;22.33;4.95;;;9.80;99.90;;;;;;5077757;28;20235;-74
2022/02/17 04:53:11;;;;;;;15.38;3.60;;;9.80;99.90;;;;;;5080615;28;20199;-73
2022/02/17 04:55:38;;;;;;;20.60;5.05;;;9.80;99.90;;;;;;5073255;28;20197;-75
2022/02/17 04:58:05;;;;;;;14.60;4.28;;;9.80;99.90;;;;;;5070955;28;20282;-72
2022/02/17 05:00:32;;;;;;;17.58;5.60;;;9.80;99.90;;;;;;5072756;28;20188;-74
2022/02/17 05:02:59;;;;;;;14.95;4.18;;;9.80;99.90;;;;;;5071875;28;20254;-73
2022/02/17 05:05:28;;;;;;;14.68;4.20;;;9.80;99.90;;;;;;5072232;28;20191;-73
2022/02/17 05:07:54;;;;;;;19.52;3.75;;;9.80;99.90;;;;;;5065470;28;20211;-72
2022/02/17 05:10:22;;;;;;;13.95;3.60;;;9.80;99.90;;;;;;5072088;28;20220;-72
2022/02/17 05:12:48;;;;;;;14.52;4.75;;;9.80;99.90;;;;;;5078101;28;20208;-73
2022/02/17 05:15:15;;;;;;;14.43;3.92;;;9.80;99.90;;;;;;5085223;28;20183;-72
2022/02/17 05:17:42;;;;;;;13.00;3.75;;;9.80;99.90;;;;;;5071461;28;20208;-74
2022/02/17 05:20:10;;;;;;;18.30;4.82;;;9.70;99.90;;;;;;5078636;28;20195;-72
2022/02/17 05:22:42;;;;;;;12.88;4.50;;;9.80;99.90;;;;;;5070873;28;20246;-75
2022/02/17 05:25:10;;;;;;;11.13;3.17;;;9.80;99.90;;;;;;5071322;28;20191;-74
2022/02/17 05:27:37;;;;;;;21.63;4.10;;;9.80;99.90;;;;;;5069625;28;20215;-76
2022/02/17 05:30:06;;;;;;;13.00;3.40;;;9.80;99.90;;;;;;5075122;28;20207;-76
2022/02/17 05:32:33;;;;;;;7.18;3.25;;;9.80;99.90;;;;;;5069698;28;20204;-73
2022/02/17 05:35:00;;;;;;;27.60;4.53;;;9.80;99.90;;;;;;5069880;28;20219;-76
2022/02/17 05:37:27;;;;;;;9.57;4.18;;;9.80;99.90;;;;;;5077128;28;20184;-73
2022/02/17 05:39:55;;;;;;;14.05;4.15;;;9.80;99.90;;;;;;5064351;28;20194;-74
2022/02/17 05:42:22;;;;;;;21.67;5.65;;;9.70;99.90;;;;;;5078491;28;20207;-75
2022/02/17 05:44:49;;;;;;;9.95;3.33;;;9.70;99.90;;;;;;5072699;28;20191;-73
2022/02/17 05:47:16;;;;;;;15.75;4.53;;;9.80;99.90;;;;;;5083232;28;20188;-72
2022/02/17 05:49:44;;;;;;;19.08;6.68;;;9.80;99.90;;;;;;5072042;28;20188;-73
2022/02/17 05:52:11;;;;;;;14.68;4.90;;;9.80;99.90;;;;;;5087031;28;20230;-74
2022/02/17 05:54:38;;;;;;;15.18;3.60;;;9.70;99.90;;;;;;5078760;28;20383;-76
2022/02/17 05:57:07;;;;;;;16.20;4.68;;;9.80;99.90;;;;;;5069489;28;20233;-72
2022/02/17 05:59:34;;;;;;;22.85;4.15;;;9.70;99.90;;;;;;5067780;28;20219;-70
2022/02/17 06:02:01;;;;;;;18.05;3.70;;;9.80;99.90;;;;;;5069139;28;20353;-75
2022/02/17 06:04:28;;;;;;;18.48;4.72;;;9.70;99.90;;;;;;5069351;28;20242;-73
2022/02/17 06:06:55;;;;;;;16.88;6.18;;;9.80;99.90;;;;;;5069089;28;20219;-74
2022/02/17 06:09:23;;;;;;;16.55;3.47;;;9.80;99.90;;;;;;5074554;28;20309;-74
2022/02/17 06:11:50;;;;;;;11.23;3.63;;;9.80;99.90;;;;;;5078354;28;20226;-74
2022/02/17 06:14:18;;;;;;;16.38;3.78;;;9.80;99.90;;;;;;5084778;28;20179;-76
2022/02/17 06:16:45;;;;;;;11.20;3.35;;;9.70;99.90;;;;;;5078519;28;20250;-74
2022/02/17 06:19:12;;;;;;;16.00;4.70;;;9.70;99.90;;;;;;5082896;28;20187;-75
2022/02/17 06:21:39;;;;;;;15.68;5.40;;;9.70;99.90;;;;;;5081744;28;20192;-73
2022/02/17 06:24:07;;;;;;;8.57;2.65;;;9.60;99.90;;;;;;5064725;28;20322;-74
2022/02/17 06:26:34;;;;;;;13.55;3.35;;;9.60;99.90;;;;;;5061416;28;20196;-75
2022/02/17 06:29:01;;;;;;;17.10;3.67;;;9.60;99.90;;;;;;5068988;28;20179;-72
2022/02/17 06:31:31;;;;;;;15.15;3.67;;;9.60;99.90;;;;;;5068642;28;20211;-72
2022/02/17 06:33:59;;;;;;;14.60;4.32;;;9.60;99.90;;;;;;5063854;28;20206;-71
2022/02/17 06:36:26;;;;;;;16.73;3.38;;;9.60;99.90;;;;;;5078379;28;20219;-72
2022/02/17 06:38:53;;;;;;;11.63;4.45;;;9.70;99.90;;;;;;5085415;28;20225;-73
2022/02/17 06:41:23;;;;;;;13.25;4.07;;;9.60;99.90;;;;;;5074660;28;20204;-74
2022/02/17 06:43:50;;;;;;;17.23;4.15;;;9.70;99.90;;;;;;5067825;28;20255;-71
2022/02/17 06:46:18;;;;;;;16.75;4.03;;;9.60;99.90;;;;;;5084006;28;20190;-70
2022/02/17 06:48:47;;;;;;;15.40;4.07;;;9.60;99.90;;;;;;5082546;28;20218;-72
2022/02/17 06:51:15;;;;;;;13.00;3.20;;;9.60;99.90;;;;;;5066728;28;20246;-75
2022/02/17 06:53:43;;;;;;;21.63;4.05;;;9.60;99.90;;;;;;5077725;28;20242;-73
2022/02/17 06:56:10;;;;;;;14.95;3.38;;;9.60;99.90;;;;;;5063196;28;20405;-70
2022/02/17 06:58:37;;;;;;;15.38;3.03;;;9.60;99.90;;;;;;5067953;28;20376;-75
2022/02/17 07:01:04;;;;;;;13.00;3.35;;;9.60;99.90;;;;;;5067874;28;20326;-77
2022/02/17 07:03:31;;;;;;;16.35;4.20;;;9.60;99.90;;;;;;5069931;28;20246;-72
2022/02/17 07:06:01;;;;;;;10.95;3.28;;;9.60;99.90;;;;;;5059812;28;20252;-75
2022/02/17 07:08:28;;;;;;;18.00;3.58;;;9.60;99.90;;;;;;5062222;28;20217;-70
2022/02/17 07:10:56;;;;;;;12.88;3.83;;;9.50;99.90;;;;;;5059060;28;20230;-72
2022/02/17 07:13:23;;;;;;;15.63;3.53;;;9.50;99.90;;;;;;5064175;28;20203;-72
2022/02/17 07:15:51;;;;;;;10.07;3.40;;;9.50;99.90;;;;;;5059127;28;20396;-74
2022/02/17 07:18:19;;;;;;;18.48;3.75;;;9.50;99.90;;;;;;5053786;28;20245;-73
2022/02/17 07:20:48;;;;;;;16.02;3.60;;;9.50;99.90;;;;;;5059859;28;20185;-72
2022/02/17 07:23:18;;;;;;;19.77;3.42;;;9.50;99.90;;;;;;5067186;28;20214;-71
2022/02/17 07:25:46;;;;;;;12.18;4.75;;;9.40;99.90;;;;;;5069022;28;20191;-74
2022/02/17 07:28:15;;;;;;;13.15;3.67;;;9.40;99.90;;;;;;5077703;28;20180;-72
2022/02/17 07:30:44;;;;;;;15.95;4.60;;;9.40;99.90;;;;;;5067131;28;20218;-72
2022/02/17 07:33:11;;;;;;;13.05;3.80;;;9.30;99.90;;;;;;5067187;28;20207;-74
2022/02/17 07:35:38;;;;;;;12.30;4.63;;;9.20;99.90;;;;;;5062107;28;20299;-73
2022/02/17 07:38:07;;;;;;;24.33;8.02;;;9.10;99.90;;;;;;5072725;28;20207;-74
2022/02/17 07:40:36;;;;;;;13.20;4.03;;;8.90;99.90;;;;;;5081735;28;20195;-70
2022/02/17 07:43:03;;;;;;;13.25;5.05;;;8.80;99.90;;;;;;5068591;28;20200;-74
2022/02/17 07:45:30;;;;;;;12.23;4.30;;;8.70;99.90;;;;;;5067432;28;20203;-72
2022/02/17 07:47:58;;;;;;;18.00;4.55;;;8.50;99.90;;;;;;5074514;28;20384;-74
2022/02/17 07:50:27;;;;;;;17.48;4.80;;;8.50;99.90;;;;;;5066415;28;20184;-70
2022/02/17 07:52:54;;;;;;;16.65;4.28;;;8.50;99.90;;;;;;5069472;28;20214;-72
2022/02/17 07:55:21;;;;;;;13.25;3.60;;;8.60;99.90;;;;;;5081694;28;20206;-73
2022/02/17 07:57:50;;;;;;;24.60;5.35;;;8.60;99.90;;;;;;5070314;28;20183;-73
2022/02/17 08:00:17;;;;;;;23.00;5.88;;;8.50;99.90;;;;;;5057046;28;20192;-71
2022/02/17 08:02:45;;;;;;;12.27;3.33;;;8.50;99.90;;;;;;5066535;28;20471;-71
2022/02/17 08:05:13;;;;;;;19.52;4.20;;;8.50;99.90;;;;;;5070146;28;20193;-72
2022/02/17 08:07:40;;;;;;;17.42;4.68;;;8.40;99.90;;;;;;5062586;28;20206;-70
2022/02/17 08:10:08;;;;;;;21.40;4.80;;;8.30;99.90;;;;;;5053391;28;20218;-68
2022/02/17 08:12:40;;;;;;;20.77;5.40;;;8.30;99.90;;;;;;5063713;28;20250;-67
2022/02/17 08:15:10;;;;;;;20.73;3.35;;;8.20;99.90;;;;;;5056086;28;20183;-72
2022/02/17 08:17:37;;;;;;;19.23;6.00;;;8.20;99.90;;;;;;5053773;28;20191;-72
2022/02/17 08:20:05;;;;;;;15.65;5.28;;;8.20;99.90;;;;;;5059795;28;20360;-70
2022/02/17 08:22:32;;;;;;;18.65;3.90;;;8.20;99.90;;;;;;5054583;28;20204;-71
2022/02/17 08:24:59;;;;;;;17.80;3.92;;;8.30;99.90;;;;;;5066717;28;20332;-70
2022/02/17 08:27:26;;;;;;;15.73;5.85;;;8.30;99.90;;;;;;5066334;28;20207;-69
2022/02/17 08:29:52;;;;;;;14.55;3.25;;;8.30;99.90;;;;;;5070029;28;20359;-69
2022/02/17 08:32:21;;;;;;;14.25;4.40;;;8.30;99.90;;;;;;5078542;28;20295;-70
2022/02/17 08:34:48;;;;;;;12.82;3.78;;;8.30;99.90;;;;;;5066533;28;20225;-70
2022/02/17 08:37:15;;;;;;;11.73;3.92;;;8.20;99.90;;;;;;5057530;28;20228;-74
2022/02/17 08:39:42;;;;;;;23.23;7.85;;;8.20;99.90;;;;;;5067693;28;20215;-69
2022/02/17 08:42:09;;;;;;;13.25;3.50;;;8.30;99.90;;;;;;5073007;28;20270;-69
2022/02/17 08:44:36;;;;;;;12.90;4.20;;;8.40;99.90;;;;;;5066692;28;20258;-70
2022/02/17 08:47:03;;;;;;;24.63;6.85;;;8.40;99.90;;;;;;5066416;28;20187;-71
2022/02/17 08:49:32;;;;;;;24.52;4.20;;;8.40;99.90;;;;;;5065911;28;20202;-71
2022/02/17 08:51:58;;;;;;;12.50;3.45;;;8.40;99.90;;;;;;5055425;28;20247;-71
2022/02/17 08:54:26;;;;;;;14.07;5.32;;;8.40;99.90;;;;;;5070854;28;20199;-71
2022/02/17 08:56:53;;;;;;;17.30;2.80;;;8.50;99.90;;;;;;5071993;28;20246;-70
2022/02/17 08:59:20;;;;;;;10.85;3.65;;;8.50;99.90;;;;;;5064777;28;20266;-70
2022/02/17 09:01:48;;;;;;;18.67;6.63;;;8.60;99.90;;;;;;5058241;28;20200;-73
2022/02/17 09:04:17;;;;;;;15.95;4.55;;;8.70;99.90;;;;;;5062531;28;20191;-71
2022/02/17 09:06:47;;;;;;;16.85;3.90;;;8.70;99.90;;;;;;5061812;28;20255;-71
2022/02/17 09:09:14;;;;;;;19.25;4.82;;;8.80;99.90;;;;;;5061300;28;20294;-74
2022/02/17 09:11:41;;;;;;;10.73;4.00;;;8.70;99.90;;;;;;5058534;28;20220;-73
2022/02/17 09:14:08;;;;;;;17.20;3.45;;;8.80;99.90;;;;;;5048635;28;20239;-69
2022/02/17 09:16:36;;;;;;;15.93;4.55;;;8.80;99.90;;;;;;5059913;28;20191;-74
2022/02/17 09:19:04;;;;;;;9.10;3.53;;;8.80;99.90;;;;;;5062831;28;20226;-71
2022/02/17 09:21:32;;;;;;;12.30;4.00;;;8.80;99.90;;;;;;5053439;28;20180;-72
2022/02/17 09:24:01;;;;;;;17.25;4.85;;;8.80;99.90;;;;;;5060687;28;20188;-74
2022/02/17 09:26:31;;;;;;;20.60;5.10;;;8.70;99.90;;;;;;5054786;28;20195;-72
2022/02/17 09:28:58;;;;;;;24.77;3.88;;;8.70;99.90;;;;;;5061567;28;20219;-73
2022/02/17 09:31:25;;;;;;;16.00;3.60;;;8.60;99.90;;;;;;5065572;28;20267;-73
2022/02/17 09:33:54;;;;;;;14.52;3.20;;;8.40;99.90;;;;;;5070666;28;20355;-68
2022/02/17 09:36:21;;;;;;;12.23;2.90;;;8.30;99.90;;;;;;5069979;28;20196;-70
2022/02/17 09:38:48;;;;;;;13.73;4.10;;;8.10;99.90;;;;;;5081945;28;20195;-70
2022/02/17 09:41:20;;;;;;;9.63;4.53;;;7.80;99.90;;;;;;5068103;28;20229;-70
2022/02/17 09:43:47;;;;;;;17.58;4.25;;;7.70;99.90;;;;;;5068927;28;20215;-68
2022/02/17 09:46:20;;;;;;;21.05;5.30;;;7.60;99.90;;;;;;5056836;28;20210;-70
2022/02/17 09:48:55;;;;;;;14.35;4.07;;;7.60;99.90;;;;;;5067947;28;20183;-69
2022/02/17 09:51:23;;;;;;;14.60;4.70;;;7.50;99.90;;;;;;5064482;28;20230;-72
2022/02/17 09:53:50;;;;;;;25.92;6.57;;;7.50;99.90;;;;;;5068819;28;20198;-70
2022/02/17 09:56:18;;;;;;;16.17;4.70;;;7.40;99.90;;;;;;5065045;28;20294;-73
2022/02/17 09:58:45;;;;;;;21.73;3.92;;;7.40;99.90;;;;;;5059534;28;20191;-69
2022/02/17 10:01:17;;;;;;;17.85;4.20;;;7.50;99.90;;;;;;5057931;28;20215;-73
2022/02/17 10:03:44;;;;;;;21.05;4.65;;;7.50;99.90;;;;;;5061841;28;20217;-71
2022/02/17 10:06:13;;;;;;;14.20;2.97;;;7.50;99.90;;;;;;5080525;28;20190;-71
2022/02/17 10:08:41;;;;;;;11.52;4.95;;;7.60;99.90;;;;;;5078765;28;20211;-69
2022/02/17 10:11:09;;;;;;;14.35;3.40;;;7.90;99.90;;;;;;5081669;28;20197;-72
2022/02/17 10:13:37;;;;;;;12.10;3.95;;;8.20;99.90;;;;;;5069192;28;20266;-72
2022/02/17 10:16:05;;;;;;;12.48;3.05;;;8.50;99.90;;;;;;5073774;28;20211;-72
2022/02/17 10:18:39;;;;;;;27.83;3.97;;;8.60;99.90;;;;;;5065215;28;20195;-71
2022/02/17 10:21:09;;;;;;;8.07;3.42;;;8.70;99.90;;;;;;5067913;28;20225;-70
2022/02/17 10:23:41;;;;;;;14.98;3.83;;;8.80;99.90;;;;;;5068618;28;20363;-70
2022/02/17 10:26:10;;;;;;;14.05;4.70;;;8.80;99.90;;;;;;5068238;28;20259;-70
2022/02/17 10:28:41;;;;;;;13.00;4.07;;;8.80;99.90;;;;;;5069754;28;20191;-73
2022/02/17 10:31:22;;;;;;;7.35;2.75;;;8.80;99.90;;;;;;5078238;28;20215;-70
2022/02/17 10:33:52;;;;;;;14.65;3.45;;;8.70;99.90;;;;;;5063373;28;20204;-69
2022/02/17 10:36:34;;;;;;;18.33;5.30;;;8.90;99.90;;;;;;5055408;28;20183;-75
2022/02/17 10:39:14;;;;;;;12.05;2.80;;;9.00;99.90;;;;;;5068718;28;20207;-71
2022/02/17 10:41:52;;;;;;;10.10;3.00;;;9.20;99.90;;;;;;5084585;28;20197;-72
2022/02/17 10:44:23;;;;;;;14.40;3.90;;;9.40;99.90;;;;;;5077609;28;20179;-71
2022/02/17 10:46:50;;;;;;;12.65;3.20;;;9.50;99.90;;;;;;5079075;28;20221;-71
2022/02/17 10:49:18;;;;;;;14.52;3.78;;;9.50;99.90;;;;;;5066357;28;20259;-68
2022/02/17 10:51:47;;;;;;;13.38;3.78;;;9.40;99.90;;;;;;5069058;28;20271;-72
2022/02/17 10:54:20;;;;;;;11.55;4.00;;;9.60;99.90;;;;;;5067295;28;20443;-74
2022/02/17 10:56:51;;;;;;;10.45;2.88;;;9.90;99.90;;;;;;5076433;28;20180;-72
2022/02/17 11:02:06;;;;;;;12.63;3.33;;;10.60;99.90;;;;;;5072653;28;20212;-73
2022/02/17 11:04:33;;;;;;;10.50;2.63;;;10.90;99.90;;;;;;5068160;28;20256;-76
2022/02/17 11:07:00;;;;;;;15.38;3.55;;;10.50;99.90;;;;;;5058494;28;20251;-74
2022/02/17 11:09:27;;;;;;;7.25;2.92;;;10.00;99.90;;;;;;5068566;28;20191;-73
2022/02/17 11:11:55;;;;;;;10.55;3.42;;;9.70;99.90;;;;;;5071108;28;20235;-75
2022/02/17 11:14:39;;;;;;;17.83;3.65;;;9.50;99.90;;;;;;5065707;28;20301;-73
2022/02/17 11:17:07;;;;;;;12.40;3.47;;;8.90;99.90;;;;;;5058391;28;20198;-74
2022/02/17 11:19:36;;;;;;;16.35;4.80;;;8.50;99.90;;;;;;5061073;28;20276;-72
2022/02/17 11:22:04;;;;;;;10.43;3.70;;;8.40;99.90;;;;;;5067656;28;20206;-74
2022/02/17 11:24:45;;;;;;;14.68;3.50;;;8.40;99.90;;;;;;5066555;28;20226;-76
2022/02/17 11:27:12;;;;;;;14.15;2.85;;;8.10;99.90;;;;;;5071435;28;20211;-71
2022/02/17 11:29:41;;;;;;;8.02;3.10;;;7.90;99.90;;;;;;5078018;28;20183;-74
2022/02/17 11:32:13;;;;;;;12.40;3.33;;;8.00;99.90;;;;;;5071575;28;20242;-73
2022/02/17 11:34:43;;;;;;;10.57;3.90;;;8.20;99.90;;;;;;5072598;28;20195;-72
2022/02/17 11:37:47;;;;;;;17.33;4.15;;;8.70;99.90;;;;;;5070065;28;20218;-73
2022/02/17 11:40:16;;;;;;;14.07;4.90;;;9.30;99.90;;;;;;5070686;28;20183;-74
2022/02/17 11:42:45;;;;;;;20.70;4.30;;;9.40;99.90;;;;;;5087924;28;20296;-76
2022/02/17 11:45:16;;;;;;;12.90;2.63;;;9.40;99.90;;;;;;5088074;28;20187;-76
2022/02/17 11:48:07;;;;;;;18.63;3.67;;;9.40;99.90;;;;;;5087718;28;20219;-72
2022/02/17 11:50:39;;;;;;;15.23;4.18;;;9.40;99.90;;;;;;5072128;28;20376;-74
2022/02/17 11:53:27;;;;;;;15.68;4.85;;;9.30;99.90;;;;;;5064320;28;20266;-73
2022/02/17 11:56:15;;;;;;;7.63;3.65;;;8.90;99.90;;;;;;5065179;28;20279;-73
2022/02/17 11:58:48;;;;;;;6.57;2.03;;;8.80;99.90;;;;;;5072299;28;20418;-71
2022/02/17 12:01:37;;;;;;;10.00;3.53;;;8.60;99.90;;;;;;5066333;28;20328;-72
2022/02/17 12:04:06;;;;;;;11.50;3.03;;;8.30;99.90;;;;;;5059941;28;20194;-72
2022/02/17 12:06:34;;;;;;;13.15;4.18;;;8.00;99.90;;;;;;5066498;28;20198;-71
2022/02/17 12:09:01;;;;;;;20.13;5.38;;;7.90;99.90;;;;;;5065943;28;20274;-69
2022/02/17 12:11:29;;;;;;;12.52;2.95;;;8.00;99.90;;;;;;5072861;28;20225;-72
2022/02/17 12:13:59;;;;;;;19.38;4.40;;;8.10;99.90;;;;;;5066548;28;20184;-70
2022/02/17 12:16:34;;;;;;;22.08;5.70;;;8.50;99.90;;;;;;5066674;28;20199;-70
2022/02/17 12:19:12;;;;;;;11.10;3.00;;;8.70;99.90;;;;;;5073936;28;20193;-71
2022/02/17 12:21:41;;;;;;;7.18;2.50;;;8.80;99.90;;;;;;5076252;28;20214;-69
2022/02/17 12:24:08;;;;;;;11.85;3.33;;;8.90;99.90;;;;;;5073404;28;20192;-69
2022/02/17 12:26:43;;;;;;;11.88;3.60;;;9.20;99.90;;;;;;5077029;28;20198;-69
2022/02/17 12:29:22;;;;;;;11.68;4.32;;;9.50;99.90;;;;;;5076804;28;20186;-69
2022/02/17 12:31:50;;;;;;;12.25;3.80;;;9.70;99.90;;;;;;5075284;28;20253;-73
2022/02/17 12:34:18;;;;;;;10.88;3.13;;;9.90;99.90;;;;;;5068236;28;20255;-72
2022/02/17 12:36:45;;;;;;;22.83;4.90;;;9.80;99.90;;;;;;5067905;28;20268;-68
2022/02/17 12:39:12;;;;;;;15.00;3.30;;;9.90;99.90;;;;;;5057020;28;20199;-68
2022/02/17 12:41:38;;;;;;;9.57;3.28;;;9.90;99.90;;;;;;5068225;28;20221;-73
2022/02/17 12:44:06;;;;;;;16.35;3.80;;;9.90;99.90;;;;;;5066505;28;20188;-71
2022/02/17 12:46:36;;;;;;;13.85;4.00;;;10.10;99.90;;;;;;5067056;28;20414;-69
2022/02/17 12:49:07;;;;;;;19.13;3.55;;;10.20;99.90;;;;;;5075916;28;20470;-67
2022/02/17 12:51:36;;;;;;;12.15;3.28;;;10.30;99.90;;;;;;5064293;28;20188;-72
2022/02/17 12:54:04;;;;;;;16.77;4.28;;;10.30;99.90;;;;;;5065699;28;20207;-67
2022/02/17 12:56:34;;;;;;;13.57;2.60;;;10.30;99.90;;;;;;5069266;28;20424;-72
2022/02/17 12:59:07;;;;;;;12.65;2.85;;;10.30;99.90;;;;;;5066151;28;20223;-72